Αρχική σελίδα
METAR-TAF:

METAR-TAF

Αεροδρόμια :

Peace River, Αλμπέρτα, Καναδάς

γεωγραφικό πλάτος: 56-14N, γεωγραφικό μήκος: 117-26W, υψόμετρο: 571 μ

Παρών καιρός

Η αναφορά έγινε 29 λεπτά πριν, στις 15:00 UTC
Άνεμος 5 kt από ΝΔ
Θερμοκρασία -1°C
Υγρασία 80%
Πίεση 1021 hPa
Ορατότητα: 24.1 χλμ
Αρκετά νέφη σε ύψος 25000 πόδια

METAR: CYPE 181500Z 23005KT 15SM BKN250 M01/M04 A3016 RMK CI5 SLP243

Χρόνος: 09:29 (15:29 UTC)

Πρόγνωση Καιρού

Η αναφορά έγινε 2 ώρες και 51 λεπτά πριν, στις 12:38 UTC
Η πρόγνωση ισχύει από τις 18 στις 13 UTC έως τις 19 στις 01 UTC
Άνεμος 5 kt από Ν/ΝΔ
Ορατότητα: 10 χλμ
Διάσπαρτα νέφη σε ύψος 20000 πόδια
Καθιστάμενος
από 18 στις 16 UTC έως τις 18 στις 18 UTC
Άνεμος 8 kt από Δ/ΝΔ

TAF: CYPE 181238Z 1813/1901 20005KT P6SM SCT200 BECMG 1816/1818 24008KT RMK NXT FCST BY 181900Z

Μετεωρολογικές αναφορές και προγνώσεις για περισσότερα από 4000 αεροδρόμια (δελτία METAR και TAF).

Οι διαθέσιμοι σταθμοί απεικονίζονται στο χάρτη με κίτρινες και κόκκινες κουκκίδες.

Μετακινήστε το ποντίκι πάνω από τις κουκκίδες για να δείτε το όνομα του σταθμού.

Στη συνέχεια, κάντε κλικ για να δείτε τις μετεωρολογικές αναφορές και τις προγνώσεις καιρού.

Για να αλλάξετε το χάρτη: κάντε κλικ στα πράσινα κουμπιά με τον μαύρο σταυρό για να ζουμάρετε, στο πράσινο κουμπί με την παύλα για να αφαιρέσετε το ζουμ ή στα πράσινα βέλη για να αντιπαραβάλλετε χάρτες.


METAR-TAF: